createdAt,value
2018-12-19T00:01:06.204Z,102875.41
2018-12-19T00:03:35.338Z,102877.47
2018-12-19T00:06:04.489Z,102875.27
2018-12-19T00:08:33.453Z,102875.30
2018-12-19T00:11:02.096Z,102876.56
2018-12-19T00:13:31.113Z,102867.89
2018-12-19T00:16:00.095Z,102881.28
2018-12-19T00:18:28.895Z,102876.67
2018-12-19T00:20:57.551Z,102882.72
2018-12-19T00:23:26.241Z,102886.63
2018-12-19T00:25:54.938Z,102886.21
2018-12-19T00:28:23.729Z,102893.20
2018-12-19T00:30:52.481Z,102891.84
2018-12-19T00:33:21.589Z,102883.66
2018-12-19T00:35:50.567Z,102884.61
2018-12-19T00:38:19.724Z,102885.93
2018-12-19T00:40:48.611Z,102888.55
2018-12-19T00:43:17.730Z,102883.38
2018-12-19T00:45:46.978Z,102887.33
2018-12-19T00:48:15.678Z,102890.34
2018-12-19T00:50:44.576Z,102878.20
2018-12-19T00:53:13.628Z,102882.12
2018-12-19T00:55:43.024Z,102893.28
2018-12-19T00:58:11.846Z,102889.39
2018-12-19T01:00:40.881Z,102892.37
2018-12-19T01:03:10.104Z,102891.59
2018-12-19T01:05:39.029Z,102893.38
2018-12-19T01:08:08.188Z,102901.14
2018-12-19T01:10:37.176Z,102903.28
2018-12-19T01:13:06.138Z,102894.64
2018-12-19T01:15:35.390Z,102897.72
2018-12-19T01:18:04.583Z,102898.55
2018-12-19T01:20:33.356Z,102907.20
2018-12-19T01:23:02.091Z,102899.53
2018-12-19T01:25:30.845Z,102891.86
2018-12-19T01:27:59.914Z,102599.70
2018-12-19T01:30:28.699Z,102887.63
2018-12-19T01:32:57.934Z,102887.66
2018-12-19T01:35:26.721Z,102884.23
2018-12-19T01:37:55.598Z,102778.68
2018-12-19T01:40:24.285Z,102884.59
2018-12-19T01:42:53.466Z,102882.06
2018-12-19T01:45:22.647Z,102881.64
2018-12-19T01:47:51.576Z,102871.77
2018-12-19T01:50:21.110Z,102873.55
2018-12-19T01:52:51.031Z,102884.39
2018-12-19T01:55:20.111Z,102874.88
2018-12-19T01:57:48.985Z,102880.95
2018-12-19T02:00:20.041Z,102878.43
2018-12-19T02:02:49.005Z,102870.69
2018-12-19T02:05:17.823Z,102879.62
2018-12-19T02:07:46.612Z,102882.52
2018-12-19T02:10:15.744Z,102875.74
2018-12-19T02:12:44.983Z,102874.52
2018-12-19T02:15:13.903Z,102877.59
2018-12-19T02:17:42.633Z,102876.72
2018-12-19T02:20:11.448Z,102874.58
2018-12-19T02:22:40.236Z,102876.77
2018-12-19T02:25:10.044Z,102880.69
2018-12-19T02:27:39.052Z,102883.67
2018-12-19T02:30:08.130Z,102876.77
2018-12-19T02:32:36.879Z,102879.75
2018-12-19T02:35:05.837Z,102879.66
2018-12-19T02:37:34.757Z,102881.77
2018-12-19T02:40:03.623Z,102878.75
2018-12-19T02:42:32.712Z,102877.98
2018-12-19T02:45:01.736Z,102876.62
2018-12-19T02:47:30.811Z,102883.55
2018-12-19T02:49:59.455Z,102882.22
2018-12-19T02:52:28.359Z,102878.37
2018-12-19T02:54:57.253Z,102877.59
2018-12-19T02:57:26.167Z,102868.52
2018-12-19T02:59:55.102Z,102875.09
2018-12-19T03:02:23.996Z,102868.64
2018-12-19T03:04:52.899Z,102874.73
2018-12-19T03:07:22.132Z,102869.55
2018-12-19T03:09:51.156Z,102873.48
2018-12-19T03:12:20.382Z,102869.66
2018-12-19T03:14:49.126Z,102866.17
2018-12-19T03:17:17.930Z,102860.11
2018-12-19T03:19:46.823Z,102859.23
2018-12-19T03:22:15.966Z,102856.23
2018-12-19T03:24:45.205Z,102850.69
2018-12-19T03:27:14.078Z,102864.52
2018-12-19T03:29:43.081Z,102858.48
2018-12-19T03:32:11.894Z,102858.97
2018-12-19T03:34:41.062Z,102854.66
2018-12-19T03:37:09.888Z,102856.38
2018-12-19T03:39:38.895Z,102857.19
2018-12-19T03:42:07.623Z,102849.42
2018-12-19T03:44:36.517Z,102848.94
2018-12-19T03:47:05.454Z,102851.50
2018-12-19T03:49:34.400Z,102851.89
2018-12-19T03:52:03.518Z,102848.03
2018-12-19T03:54:32.808Z,102849.84
2018-12-19T03:57:01.923Z,102856.31
2018-12-19T03:59:30.669Z,102849.84
2018-12-19T04:01:59.506Z,102850.74
2018-12-19T04:04:28.557Z,102850.80
2018-12-19T04:06:57.325Z,102851.67
2018-12-19T04:09:26.037Z,102854.30
2018-12-19T04:11:54.767Z,102853.84
2018-12-19T04:14:24.037Z,102854.73
2018-12-19T04:16:53.210Z,102849.50
2018-12-19T04:19:22.106Z,102846.48
2018-12-19T04:21:51.134Z,102846.99
2018-12-19T04:24:20.279Z,102841.87
2018-12-19T04:26:49.525Z,102835.80
2018-12-19T04:29:18.602Z,102838.00
2018-12-19T04:31:47.689Z,102841.44
2018-12-19T04:34:16.723Z,102844.45
2018-12-19T04:36:45.900Z,102845.75
2018-12-19T04:39:14.783Z,102841.86
2018-12-19T04:41:44.276Z,102844.03
2018-12-19T04:44:13.350Z,102846.23
2018-12-19T04:46:42.097Z,102844.94
2018-12-19T04:49:11.890Z,102846.67
2018-12-19T04:51:40.601Z,102852.33
2018-12-19T04:54:09.602Z,102854.56
2018-12-19T04:56:38.443Z,102853.20
2018-12-19T04:59:07.577Z,102844.98
2018-12-19T05:01:36.932Z,102844.98
2018-12-19T05:04:06.037Z,102847.60
2018-12-19T05:06:34.767Z,102849.80
2018-12-19T05:09:05.938Z,102854.14
2018-12-19T05:11:35.349Z,102853.28
2018-12-19T05:14:04.569Z,102847.25
2018-12-19T05:16:33.824Z,102849.42
2018-12-19T05:19:02.600Z,102851.56
2018-12-19T05:21:31.325Z,102852.42
2018-12-19T05:23:59.999Z,102851.57
2018-12-19T05:26:28.998Z,102849.82
2018-12-19T05:28:57.972Z,102836.84
2018-12-19T05:31:26.860Z,102845.96
2018-12-19T05:33:55.744Z,102840.75
2018-12-19T05:36:26.408Z,102837.73
2018-12-19T05:38:55.514Z,102829.97
2018-12-19T05:41:24.517Z,102835.67
2018-12-19T05:43:53.617Z,102834.80
2018-12-19T05:46:22.445Z,102833.87
2018-12-19T05:48:51.439Z,102839.56
2018-12-19T05:51:20.100Z,102845.62
2018-12-19T05:53:48.874Z,102841.75
2018-12-19T05:56:17.695Z,102844.79
2018-12-19T05:58:46.754Z,102835.69
2018-12-19T06:01:15.435Z,102841.72
2018-12-19T06:03:44.622Z,102840.91
2018-12-19T06:06:13.764Z,102831.86
2018-12-19T06:08:42.561Z,102834.88
2018-12-19T06:11:11.641Z,102838.28
2018-12-19T06:13:40.731Z,102832.67
2018-12-19T06:16:09.396Z,102836.98
2018-12-19T06:18:38.447Z,102827.02
2018-12-19T06:21:07.259Z,102831.80
2018-12-19T06:23:35.964Z,102838.70
2018-12-19T06:26:05.103Z,102833.95
2018-12-19T06:28:34.039Z,102830.51
2018-12-19T06:31:03.088Z,102830.09
2018-12-19T06:33:31.797Z,102826.95
2018-12-19T06:36:01.209Z,102840.84
2018-12-19T06:38:30.009Z,102832.63
2018-12-19T06:40:58.754Z,102830.06
2018-12-19T06:43:27.958Z,102832.65
2018-12-19T06:45:56.681Z,102831.36
2018-12-19T06:48:25.625Z,102730.36
2018-12-19T06:50:54.588Z,102835.66
2018-12-19T06:53:23.223Z,102838.31
2018-12-19T06:55:51.942Z,102830.53
2018-12-19T06:58:20.813Z,102839.19
2018-12-19T07:00:49.579Z,102833.58
2018-12-19T07:03:18.726Z,102837.02
2018-12-19T07:05:47.534Z,102842.20
2018-12-19T07:08:16.380Z,102832.25
2018-12-19T07:10:45.242Z,102839.98
2018-12-19T07:13:14.452Z,102843.08
2018-12-19T07:15:43.387Z,102844.79
2018-12-19T07:18:12.283Z,102846.98
2018-12-19T07:20:41.071Z,102854.80
2018-12-19T07:23:09.928Z,102850.45
2018-12-19T07:25:38.752Z,102859.55
2018-12-19T07:28:07.456Z,102855.20
2018-12-19T07:30:36.365Z,102860.39
2018-12-19T07:33:05.658Z,102857.80
2018-12-19T07:35:34.679Z,102872.94
2018-12-19T07:38:03.718Z,102868.62
2018-12-19T07:40:32.819Z,102879.45
2018-12-19T07:43:01.791Z,102875.55
2018-12-19T07:45:30.664Z,102872.17
2018-12-19T07:47:59.602Z,102867.85
2018-12-19T07:50:28.829Z,102874.78
2018-12-19T07:52:57.534Z,102870.42
2018-12-19T07:55:28.098Z,102867.85
2018-12-19T07:57:56.927Z,102876.12
2018-12-19T08:00:27.615Z,102883.09
2018-12-19T08:02:56.519Z,102870.99
2018-12-19T08:05:26.353Z,102878.80
2018-12-19T08:07:55.863Z,102877.52
2018-12-19T08:10:24.951Z,102877.52
2018-12-19T08:12:54.089Z,102882.72
2018-12-19T08:15:22.769Z,102875.70
2018-12-19T08:17:51.641Z,102871.84
2018-12-19T08:20:20.699Z,102877.92
2018-12-19T08:22:49.636Z,102869.30
2018-12-19T08:25:18.483Z,102876.18
2018-12-19T08:27:47.171Z,102870.44
2018-12-19T08:30:15.886Z,102875.60
2018-12-19T08:32:44.515Z,102875.58
2018-12-19T08:35:13.400Z,102874.70
2018-12-19T08:37:42.219Z,102872.52
2018-12-19T08:40:11.391Z,102875.95
2018-12-19T08:42:40.254Z,102869.89
2018-12-19T08:45:09.342Z,102867.28
2018-12-19T08:47:38.307Z,102876.25
2018-12-19T08:50:09.336Z,102867.04
2018-12-19T08:52:38.544Z,102869.16
2018-12-19T08:55:08.583Z,102869.61
2018-12-19T08:57:37.684Z,102875.72
2018-12-19T09:00:08.314Z,102882.23
2018-12-19T09:02:37.369Z,102872.31
2018-12-19T09:05:06.524Z,102878.76
2018-12-19T09:07:35.603Z,102871.88
2018-12-19T09:10:05.213Z,102875.41
2018-12-19T09:12:34.077Z,102867.17
2018-12-19T09:15:02.776Z,102877.56
2018-12-19T09:17:31.988Z,102880.14
2018-12-19T09:20:01.010Z,102876.64
2018-12-19T09:22:30.177Z,102865.82
2018-12-19T09:24:58.932Z,102872.38
2018-12-19T09:27:27.896Z,102873.67
2018-12-19T09:29:56.878Z,102871.06
2018-12-19T09:32:25.909Z,102876.27
2018-12-19T09:34:55.178Z,102871.53
2018-12-19T09:37:24.392Z,102873.28
2018-12-19T09:39:53.066Z,102870.75
2018-12-19T09:42:21.747Z,102877.67
2018-12-19T09:44:50.725Z,102883.73
2018-12-19T09:47:19.655Z,102875.34
2018-12-19T09:50:19.374Z,102880.03
2018-12-19T09:52:48.547Z,102877.48
2018-12-19T09:55:17.437Z,102875.41
2018-12-19T09:57:46.423Z,102880.16
2018-12-19T10:00:33.643Z,102877.20
2018-12-19T10:03:02.327Z,102870.77
2018-12-19T10:05:31.462Z,102867.78
2018-12-19T10:08:00.561Z,102868.67
2018-12-19T10:10:29.858Z,102867.83
2018-12-19T10:12:59.027Z,102871.19
2018-12-19T10:15:27.895Z,102859.89
2018-12-19T10:17:56.654Z,102867.28
2018-12-19T10:20:25.897Z,102865.06
2018-12-19T10:22:56.160Z,102863.81
2018-12-19T10:25:25.401Z,102863.02
2018-12-19T10:27:54.194Z,102863.44
2018-12-19T10:30:23.496Z,102867.36
2018-12-19T10:32:57.046Z,102865.26
2018-12-19T10:35:26.667Z,102865.16
2018-12-19T10:37:55.440Z,102860.42
2018-12-19T10:40:24.901Z,102866.93
2018-12-19T10:42:54.177Z,102860.00
2018-12-19T10:45:22.996Z,102865.61
2018-12-19T10:47:51.933Z,102869.47
2018-12-19T10:50:21.122Z,102863.68
2018-12-19T10:52:50.268Z,102868.42
2018-12-19T10:55:19.303Z,102871.09
2018-12-19T10:57:47.942Z,102862.48
2018-12-19T11:00:21.779Z,102859.98
2018-12-19T11:02:50.621Z,102859.15
2018-12-19T11:05:19.724Z,102860.90
2018-12-19T11:07:48.897Z,102854.86
2018-12-19T11:10:18.292Z,102847.94
2018-12-19T11:12:48.065Z,102844.89
2018-12-19T11:15:16.923Z,102844.49
2018-12-19T11:17:45.949Z,102847.53
2018-12-19T11:20:15.167Z,102854.02
2018-12-19T11:22:44.218Z,102847.88
2018-12-19T11:25:13.398Z,102848.36
2018-12-19T11:27:42.528Z,102846.59
2018-12-19T11:30:11.613Z,102846.22
2018-12-19T11:32:40.661Z,102846.68
2018-12-19T11:35:09.546Z,102847.16
2018-12-19T11:37:38.591Z,102848.88
2018-12-19T11:40:09.057Z,102854.06
2018-12-19T11:42:37.975Z,102845.39
2018-12-19T11:45:07.773Z,102846.66
2018-12-19T11:47:36.714Z,102839.73
2018-12-19T11:50:06.855Z,102838.91
2018-12-19T11:52:35.642Z,102834.19
2018-12-19T11:55:04.626Z,102837.19
2018-12-19T11:57:34.467Z,102830.20
2018-12-19T12:00:03.980Z,102834.52
2018-12-19T12:02:33.164Z,102835.77
2018-12-19T12:05:01.880Z,102846.59
2018-12-19T12:07:30.964Z,102837.96
2018-12-19T12:09:59.957Z,102836.72
2018-12-19T12:12:29.202Z,102844.05
2018-12-19T12:14:58.335Z,102837.56
2018-12-19T12:17:27.415Z,102831.86
2018-12-19T12:19:56.852Z,102836.59
2018-12-19T12:22:26.240Z,102839.68
2018-12-19T12:24:54.915Z,102836.17
2018-12-19T12:27:23.615Z,102826.62
2018-12-19T12:29:52.423Z,102828.41
2018-12-19T12:32:21.106Z,102821.08
2018-12-19T12:34:50.261Z,102830.66
2018-12-19T12:37:19.211Z,102825.05
2018-12-19T12:39:48.118Z,102822.43
2018-12-19T12:42:17.178Z,102818.47
2018-12-19T12:44:46.556Z,102815.86
2018-12-19T12:47:15.398Z,102814.91
2018-12-19T12:49:44.171Z,102816.17
2018-12-19T12:52:12.903Z,102818.30
2018-12-19T12:54:41.524Z,102812.96
2018-12-19T12:57:10.428Z,102814.62
2018-12-19T12:59:39.267Z,102813.73
2018-12-19T13:02:07.982Z,102806.78
2018-12-19T13:04:36.736Z,102806.72
2018-12-19T13:07:05.564Z,102803.66
2018-12-19T13:09:34.555Z,102811.34
2018-12-19T13:12:03.649Z,102809.91
2018-12-19T13:14:32.698Z,102814.61
2018-12-19T13:17:01.563Z,102816.70
2018-12-19T13:19:30.355Z,102820.52
2018-12-19T13:21:59.227Z,102819.20
2018-12-19T13:24:28.171Z,102812.72
2018-12-19T13:26:57.100Z,102817.52
2018-12-19T13:29:25.910Z,102822.30
2018-12-19T13:31:55.007Z,102819.70
2018-12-19T13:34:23.798Z,102817.14
2018-12-19T13:36:52.636Z,102817.14
2018-12-19T13:39:21.408Z,102822.33
2018-12-19T13:41:50.127Z,102820.22
2018-12-19T13:44:18.829Z,102823.28
2018-12-19T13:46:47.672Z,102822.05
2018-12-19T13:49:16.850Z,102815.60
2018-12-19T13:51:45.849Z,102818.67
2018-12-19T13:54:14.840Z,102810.90
2018-12-19T13:56:43.676Z,102816.55
2018-12-19T13:59:12.391Z,102816.13
2018-12-19T14:01:41.134Z,102826.09
2018-12-19T14:04:10.171Z,102821.79
2018-12-19T14:06:38.869Z,102823.11
2018-12-19T14:09:08.286Z,102823.95
2018-12-19T14:11:37.134Z,102820.55
2018-12-19T14:14:06.721Z,102817.98
2018-12-19T14:16:36.111Z,102821.45
2018-12-19T14:19:05.189Z,102818.86
2018-12-19T14:21:34.026Z,102810.98
2018-12-19T14:24:02.979Z,102820.49
2018-12-19T14:26:32.269Z,102821.81
2018-12-19T14:29:01.351Z,102819.23
2018-12-19T14:31:30.338Z,102820.05
2018-12-19T14:34:00.121Z,102823.98
2018-12-19T14:36:29.353Z,102816.61
2018-12-19T14:38:58.400Z,102826.21
2018-12-19T14:41:27.819Z,102813.67
2018-12-19T14:43:56.858Z,102806.77
2018-12-19T14:46:25.536Z,102806.78
2018-12-19T14:48:54.413Z,102812.67
2018-12-19T14:51:23.702Z,102811.74
2018-12-19T14:53:52.726Z,102810.05
2018-12-19T14:56:21.758Z,102810.98
2018-12-19T14:58:50.915Z,102811.41
2018-12-19T15:01:19.847Z,102812.25
2018-12-19T15:03:48.851Z,102791.61
2018-12-19T15:06:18.225Z,102815.17
2018-12-19T15:08:46.983Z,102811.73
2018-12-19T15:11:15.902Z,102814.78
2018-12-19T15:13:46.185Z,102812.61
2018-12-19T15:16:19.283Z,102811.77
2018-12-19T15:18:48.356Z,102820.47
2018-12-19T15:21:17.746Z,102818.33
2018-12-19T15:23:46.698Z,102817.06
2018-12-19T15:26:15.825Z,102817.03
2018-12-19T15:28:45.014Z,102806.89
2018-12-19T15:31:13.912Z,102809.09
2018-12-19T15:33:43.038Z,102802.67
2018-12-19T15:36:12.503Z,102802.31
2018-12-19T15:38:41.208Z,102806.25
2018-12-19T15:41:10.429Z,102803.69
2018-12-19T15:43:39.519Z,102805.45
2018-12-19T15:46:08.411Z,102797.66
2018-12-19T15:48:37.117Z,102800.70
2018-12-19T15:51:06.241Z,102801.15
2018-12-19T15:53:35.206Z,102796.41
2018-12-19T15:56:04.090Z,102795.56
2018-12-19T15:58:33.392Z,102736.02
2018-12-19T16:01:02.696Z,102793.05
2018-12-19T16:03:31.593Z,102792.16
2018-12-19T16:06:00.470Z,102790.44
2018-12-19T16:08:29.177Z,102790.38
2018-12-19T16:10:58.043Z,102794.59
2018-12-19T16:13:27.143Z,102789.44
2018-12-19T16:15:56.959Z,102787.69
2018-12-19T16:18:26.357Z,102789.94
2018-12-19T16:20:55.871Z,102782.66
2018-12-19T16:23:25.114Z,102784.84
2018-12-19T16:25:53.965Z,102782.79
2018-12-19T16:28:23.090Z,102784.51
2018-12-19T16:30:52.208Z,102780.20
2018-12-19T16:33:21.280Z,102778.38
2018-12-19T16:35:50.151Z,102777.93
2018-12-19T16:38:19.348Z,102774.98
2018-12-19T16:40:48.334Z,102776.78
2018-12-19T16:43:17.122Z,102770.67
2018-12-19T16:45:46.321Z,102735.52
2018-12-19T16:48:15.091Z,102761.20
2018-12-19T16:50:43.846Z,102766.89
2018-12-19T16:53:12.765Z,102761.70
2018-12-19T16:55:41.647Z,102754.79
2018-12-19T16:58:11.139Z,102765.23
2018-12-19T17:00:40.026Z,102755.31
2018-12-19T17:03:09.288Z,102764.80
2018-12-19T17:05:38.175Z,102764.41
2018-12-19T17:08:07.433Z,102759.27
2018-12-19T17:10:36.418Z,102754.03
2018-12-19T17:13:05.514Z,102763.17
2018-12-19T17:15:38.704Z,102766.17
2018-12-19T17:18:08.237Z,102775.76
2018-12-19T17:20:37.475Z,102785.31
2018-12-19T17:23:06.854Z,102780.47
2018-12-19T17:25:36.214Z,102780.52
2018-12-19T17:28:07.171Z,102779.66
2018-12-19T17:30:36.271Z,102780.56
2018-12-19T17:33:05.697Z,102783.63
2018-12-19T17:35:34.726Z,102781.84
2018-12-19T17:38:06.517Z,102789.99
2018-12-19T17:40:35.812Z,102781.38
2018-12-19T17:43:04.825Z,102785.28
2018-12-19T17:45:34.110Z,102780.97
2018-12-19T17:48:03.296Z,102778.37
2018-12-19T17:50:32.258Z,102782.30
2018-12-19T17:53:01.301Z,102777.53
2018-12-19T17:55:31.141Z,102780.09
2018-12-19T17:58:01.303Z,102777.48
2018-12-19T18:00:30.482Z,102779.20
2018-12-19T18:02:59.749Z,102783.48
2018-12-19T18:05:29.009Z,102780.85
2018-12-19T18:07:57.995Z,102786.86
2018-12-19T18:10:27.107Z,102785.14
2018-12-19T18:12:56.220Z,102792.92
2018-12-19T18:15:25.661Z,102782.55
2018-12-19T18:17:55.003Z,102778.17
2018-12-19T18:20:24.354Z,102780.81
2018-12-19T18:22:53.743Z,102784.77
2018-12-19T18:25:22.929Z,102781.70
2018-12-19T18:27:52.463Z,102794.76
2018-12-19T18:30:22.142Z,102794.33
2018-12-19T18:32:51.580Z,102796.13
2018-12-19T18:35:20.806Z,102788.36
2018-12-19T18:37:50.200Z,102793.59
2018-12-19T18:40:19.297Z,102797.05
2018-12-19T18:42:48.550Z,102798.41
2018-12-19T18:45:17.827Z,102791.45
2018-12-19T18:47:47.055Z,102796.20
2018-12-19T18:50:16.242Z,102791.02
2018-12-19T18:52:45.832Z,102789.70
2018-12-19T18:55:14.995Z,102796.19
2018-12-19T18:57:44.401Z,102786.24
2018-12-19T19:00:16.213Z,102789.25
2018-12-19T19:02:45.461Z,102788.83
2018-12-19T19:05:15.126Z,102787.55
2018-12-19T19:07:44.810Z,102785.39
2018-12-19T19:10:14.474Z,102784.16
2018-12-19T19:12:45.160Z,102793.23
2018-12-19T19:15:14.934Z,102792.81
2018-12-19T19:17:44.890Z,102791.58
2018-12-19T19:20:14.655Z,102792.85
2018-12-19T19:22:44.247Z,102797.62
2018-12-19T19:25:13.951Z,102794.12
2018-12-19T19:27:43.595Z,102794.97
2018-12-19T19:30:13.128Z,102797.19
2018-12-19T19:32:42.892Z,102800.66
2018-12-19T19:35:12.569Z,102794.12
2018-12-19T19:37:42.375Z,102802.41
2018-12-19T19:40:12.203Z,102802.81
2018-12-19T19:42:42.053Z,102793.77
2018-12-19T19:45:11.690Z,102805.41
2018-12-19T19:47:41.758Z,102805.44
2018-12-19T19:50:11.588Z,102803.76
2018-12-19T19:52:41.388Z,102799.42
2018-12-19T19:55:11.246Z,102798.55
2018-12-19T19:57:41.129Z,102798.97
2018-12-19T20:00:12.120Z,102801.55
2018-12-19T20:02:42.103Z,102798.95
2018-12-19T20:05:11.977Z,102795.92
2018-12-19T20:07:41.804Z,102801.09
2018-12-19T20:10:11.834Z,102801.52
2018-12-19T20:12:41.656Z,102793.25
2018-12-19T20:15:11.399Z,102803.23
2018-12-19T20:17:41.980Z,102800.61
2018-12-19T20:20:11.708Z,102800.55
2018-12-19T20:22:42.229Z,102794.47
2018-12-19T20:25:12.992Z,102804.41
2018-12-19T20:27:42.724Z,102781.50
2018-12-19T20:30:13.749Z,102774.56
2018-12-19T20:32:43.451Z,102779.33
2018-12-19T20:35:13.053Z,102772.42
2018-12-19T20:37:42.424Z,102781.05
2018-12-19T20:40:11.984Z,102800.50
2018-12-19T20:42:41.255Z,102794.45
2018-12-19T20:45:10.506Z,102800.52
2018-12-19T20:47:40.015Z,102800.95
2018-12-19T20:50:09.748Z,102801.75
2018-12-19T20:52:38.932Z,102809.48
2018-12-19T20:55:09.280Z,102809.49
2018-12-19T20:57:38.562Z,102804.32
2018-12-19T21:00:08.424Z,102806.05
2018-12-19T21:02:37.620Z,102814.27
2018-12-19T21:05:07.080Z,102804.32
2018-12-19T21:07:39.414Z,102800.01
2018-12-19T21:10:09.204Z,102803.03
2018-12-19T21:12:38.522Z,102799.56
2018-12-19T21:15:08.590Z,102796.17
2018-12-19T21:17:43.498Z,102807.43
2018-12-19T21:20:12.717Z,102806.09
2018-12-19T21:22:42.151Z,102814.77
2018-12-19T21:25:11.531Z,102813.47
2018-12-19T21:27:40.730Z,102816.06
2018-12-19T21:30:10.752Z,102820.00
2018-12-19T21:32:40.019Z,102812.27
2018-12-19T21:35:09.349Z,102658.70
2018-12-19T21:37:38.643Z,102824.38
2018-12-19T21:40:08.156Z,102810.53
2018-12-19T21:42:37.534Z,102819.63
2018-12-19T21:45:07.123Z,102809.20
2018-12-19T21:47:35.885Z,102820.47
2018-12-19T21:50:05.064Z,102818.30
2018-12-19T21:52:33.995Z,102822.63
2018-12-19T21:55:02.763Z,102814.02
2018-12-19T21:57:31.564Z,102820.14
2018-12-19T22:00:00.323Z,102816.67
2018-12-19T22:02:29.130Z,102814.06
2018-12-19T22:04:58.104Z,102817.97
2018-12-19T22:07:26.861Z,102814.02
2018-12-19T22:09:55.780Z,102821.30
2018-12-19T22:12:24.547Z,102815.63
2018-12-19T22:14:53.802Z,102818.63
2018-12-19T22:17:27.743Z,102821.20
2018-12-19T22:19:56.413Z,102818.61
2018-12-19T22:22:25.262Z,102818.94
2018-12-19T22:24:54.050Z,102815.83
2018-12-19T22:27:22.818Z,102816.58
2018-12-19T22:29:51.680Z,102819.05
2018-12-19T22:32:20.525Z,102819.31
2018-12-19T22:34:49.243Z,102817.03
2018-12-19T22:37:17.924Z,102817.38
2018-12-19T22:39:46.762Z,102816.50
2018-12-19T22:42:15.451Z,102813.43
2018-12-19T22:44:44.154Z,102816.39
2018-12-19T22:47:12.923Z,102815.03
2018-12-19T22:49:42.603Z,102817.14
2018-12-19T22:52:11.322Z,102818.02
2018-12-19T22:54:40.042Z,102815.85
2018-12-19T22:57:08.859Z,102822.74
2018-12-19T22:59:37.701Z,102823.63
2018-12-19T23:03:13.075Z,102825.81
2018-12-19T23:05:47.258Z,102826.30
2018-12-19T23:08:16.138Z,102825.45
2018-12-19T23:10:44.900Z,102825.06
2018-12-19T23:16:45.198Z,102826.86
2018-12-19T23:19:14.163Z,102829.03
2018-12-19T23:21:42.890Z,102845.89
2018-12-19T23:24:11.745Z,102829.09
2018-12-19T23:26:40.628Z,102838.64
2018-12-19T23:29:09.331Z,102833.03
2018-12-19T23:31:38.151Z,102823.93
2018-12-19T23:34:07.050Z,102830.44
2018-12-19T23:36:36.000Z,102821.80
2018-12-19T23:39:07.384Z,102819.11
2018-12-19T23:41:36.265Z,102823.37
2018-12-19T23:44:05.141Z,102828.49
2018-12-19T23:46:35.376Z,102827.16
2018-12-19T23:49:04.285Z,102823.64
2018-12-19T23:51:33.068Z,102821.45
2018-12-19T23:54:01.783Z,102816.16
2018-12-19T23:56:30.504Z,102819.20
2018-12-19T23:58:59.636Z,102823.59
